createdAt,value
2023-01-31T00:00:08.027Z,3.90
2023-01-31T00:03:10.190Z,4.70
2023-01-31T00:06:18.432Z,4.40
2023-01-31T00:09:20.821Z,4.07
2023-01-31T00:12:22.831Z,3.67
2023-01-31T00:15:24.876Z,3.70
2023-01-31T00:18:27.351Z,4.07
2023-01-31T00:21:31.351Z,3.40
2023-01-31T00:24:33.401Z,4.13
2023-01-31T00:27:35.977Z,4.47
2023-01-31T00:30:38.227Z,3.70
2023-01-31T00:33:42.451Z,4.00
2023-01-31T00:36:44.633Z,3.53
2023-01-31T00:39:46.724Z,3.60
2023-01-31T00:42:48.741Z,4.60
2023-01-31T00:45:51.037Z,3.93
2023-01-31T00:48:53.947Z,3.40
2023-01-31T00:51:56.075Z,3.67
2023-01-31T00:54:58.128Z,3.87
2023-01-31T00:58:01.167Z,3.63
2023-01-31T01:01:10.308Z,4.43
2023-01-31T01:04:13.698Z,4.40
2023-01-31T01:07:15.757Z,4.27
2023-01-31T01:10:18.210Z,3.93
2023-01-31T01:13:20.255Z,4.60
2023-01-31T01:16:25.438Z,5.03
2023-01-31T01:19:27.520Z,3.77
2023-01-31T01:22:30.867Z,3.77
2023-01-31T01:25:43.211Z,4.40
2023-01-31T01:28:45.781Z,3.90
2023-01-31T01:31:48.017Z,4.20
2023-01-31T01:34:50.557Z,3.83
2023-01-31T01:37:52.686Z,3.70
2023-01-31T01:40:54.786Z,3.97
2023-01-31T01:43:58.643Z,4.80
2023-01-31T01:47:01.564Z,3.10
2023-01-31T01:50:08.455Z,2.95
2023-01-31T01:56:19.889Z,3.90
2023-01-31T01:59:28.693Z,3.30
2023-01-31T02:02:30.951Z,3.07
2023-01-31T02:05:40.200Z,3.30
2023-01-31T02:08:43.628Z,3.57
2023-01-31T02:11:45.736Z,3.37
2023-01-31T02:14:50.132Z,3.27
2023-01-31T02:17:53.890Z,3.72
2023-01-31T02:21:33.686Z,3.90
2023-01-31T02:25:10.311Z,3.77
2023-01-31T02:28:18.195Z,4.30
2023-01-31T02:31:38.182Z,4.97
2023-01-31T02:34:52.602Z,4.07
2023-01-31T02:38:06.639Z,3.67
2023-01-31T02:41:27.795Z,4.00
2023-01-31T02:45:01.862Z,3.90
2023-01-31T02:48:22.873Z,4.43
2023-01-31T02:51:42.399Z,4.93
2023-01-31T02:55:30.917Z,5.17
2023-01-31T02:58:36.792Z,3.77
2023-01-31T03:01:43.782Z,4.90
2023-01-31T03:04:47.056Z,4.33
2023-01-31T03:07:58.707Z,4.30
2023-01-31T03:11:07.203Z,3.93
2023-01-31T03:14:27.569Z,3.60
2023-01-31T03:17:51.776Z,4.37
2023-01-31T03:21:03.749Z,4.33
2023-01-31T03:24:07.481Z,4.73
2023-01-31T03:27:09.684Z,6.10
2023-01-31T03:30:18.655Z,3.73
2023-01-31T03:33:29.958Z,4.40
2023-01-31T03:36:56.422Z,4.30
2023-01-31T03:40:01.300Z,4.60
2023-01-31T03:46:22.696Z,5.10
2023-01-31T03:49:27.334Z,4.37
2023-01-31T03:52:38.975Z,3.35
2023-01-31T03:55:48.773Z,4.13
2023-01-31T03:58:57.091Z,4.10
2023-01-31T04:02:02.043Z,3.33
2023-01-31T04:05:09.283Z,3.67
2023-01-31T04:08:12.250Z,4.33
2023-01-31T04:11:16.240Z,3.57
2023-01-31T04:14:20.453Z,4.07
2023-01-31T04:17:22.527Z,4.63
2023-01-31T04:20:24.703Z,4.17
2023-01-31T04:23:26.833Z,4.40
2023-01-31T04:26:28.958Z,4.13
2023-01-31T04:29:31.021Z,5.17
2023-01-31T04:32:33.450Z,4.03
2023-01-31T04:35:35.677Z,4.57
2023-01-31T04:38:37.802Z,4.17
2023-01-31T04:41:39.820Z,3.97
2023-01-31T04:44:41.884Z,3.50
2023-01-31T04:47:43.886Z,3.33
2023-01-31T04:50:46.170Z,3.53
2023-01-31T04:53:48.353Z,4.33
2023-01-31T04:56:50.458Z,4.57
2023-01-31T04:59:52.522Z,3.97
2023-01-31T05:02:54.840Z,3.20
2023-01-31T05:05:56.890Z,3.90
2023-01-31T05:09:01.574Z,3.43
2023-01-31T05:12:05.261Z,3.67
2023-01-31T05:15:19.594Z,4.47
2023-01-31T05:18:22.425Z,3.90
2023-01-31T05:21:25.151Z,3.50
2023-01-31T05:24:33.079Z,3.40
2023-01-31T05:27:35.112Z,4.30
2023-01-31T05:30:37.781Z,4.20
2023-01-31T05:33:40.256Z,3.67
2023-01-31T05:36:45.289Z,3.60
2023-01-31T05:39:47.509Z,3.58
2023-01-31T05:43:00.033Z,4.40
2023-01-31T05:46:02.589Z,3.47
2023-01-31T05:49:05.130Z,3.17
2023-01-31T05:52:07.274Z,3.43
2023-01-31T05:55:09.559Z,3.17
2023-01-31T05:58:11.709Z,3.67
2023-01-31T06:01:13.727Z,4.30
2023-01-31T06:04:15.994Z,3.40
2023-01-31T06:07:18.262Z,2.70
2023-01-31T06:10:21.260Z,3.63
2023-01-31T06:13:23.541Z,3.70
2023-01-31T06:16:25.940Z,4.53
2023-01-31T06:19:28.050Z,2.97
2023-01-31T06:22:30.154Z,3.37
2023-01-31T06:25:32.175Z,3.77
2023-01-31T06:28:34.232Z,4.53
2023-01-31T06:31:36.425Z,3.70
2023-01-31T06:34:39.588Z,2.67
2023-01-31T06:37:41.621Z,5.60
2023-01-31T06:40:44.921Z,5.10
2023-01-31T06:43:47.267Z,4.27
2023-01-31T06:46:49.321Z,3.77
2023-01-31T06:49:52.463Z,4.23
2023-01-31T06:52:54.823Z,3.33
2023-01-31T06:55:56.925Z,3.90
2023-01-31T06:58:59.723Z,4.10
2023-01-31T07:02:01.752Z,3.33
2023-01-31T07:05:03.966Z,4.77
2023-01-31T07:08:06.144Z,4.27
2023-01-31T07:11:08.357Z,4.47
2023-01-31T07:14:10.528Z,4.57
2023-01-31T07:17:12.575Z,4.37
2023-01-31T07:20:14.639Z,4.43
2023-01-31T07:23:16.742Z,4.60
2023-01-31T07:26:18.882Z,3.93
2023-01-31T07:29:21.031Z,4.57
2023-01-31T07:32:23.084Z,5.20
2023-01-31T07:35:25.213Z,5.63
2023-01-31T07:38:28.828Z,4.77
2023-01-31T07:41:32.227Z,4.93
2023-01-31T07:44:34.336Z,3.90
2023-01-31T07:47:36.471Z,6.67
2023-01-31T07:50:38.651Z,4.17
2023-01-31T07:53:44.152Z,4.47
2023-01-31T07:56:47.555Z,5.27
2023-01-31T07:59:50.227Z,6.30
2023-01-31T08:03:11.112Z,6.40
2023-01-31T08:06:14.105Z,7.17
2023-01-31T08:09:16.363Z,6.00
2023-01-31T08:12:18.588Z,5.73
2023-01-31T08:15:20.923Z,4.93
2023-01-31T08:18:24.098Z,6.17
2023-01-31T08:21:26.292Z,5.00
2023-01-31T08:24:28.433Z,7.67
2023-01-31T08:27:31.509Z,4.10
2023-01-31T08:30:34.108Z,4.57
2023-01-31T08:33:38.145Z,4.33
2023-01-31T08:36:40.469Z,4.85
2023-01-31T08:39:44.482Z,14.30
2023-01-31T08:42:54.978Z,3.57
2023-01-31T08:45:57.223Z,5.00
2023-01-31T08:49:01.280Z,3.70
2023-01-31T08:52:03.547Z,4.40
2023-01-31T08:55:06.735Z,4.23
2023-01-31T08:58:08.898Z,3.90
2023-01-31T09:01:16.821Z,2.97
2023-01-31T09:04:18.972Z,4.50
2023-01-31T09:07:21.877Z,4.77
2023-01-31T09:10:24.921Z,3.33
2023-01-31T09:13:28.883Z,3.42
2023-01-31T09:16:31.385Z,5.68
2023-01-31T09:19:33.665Z,4.40
2023-01-31T09:22:36.194Z,3.42
2023-01-31T09:25:47.138Z,3.45
2023-01-31T09:28:51.207Z,2.92
2023-01-31T09:31:53.828Z,3.77
2023-01-31T09:34:55.934Z,3.50
2023-01-31T09:37:58.752Z,3.97
2023-01-31T09:41:04.229Z,4.63
2023-01-31T09:44:32.430Z,4.20
2023-01-31T09:47:38.548Z,3.78
2023-01-31T09:50:46.621Z,3.25
2023-01-31T09:53:48.943Z,3.58
2023-01-31T09:57:06.937Z,3.20
2023-01-31T10:00:31.893Z,4.25
2023-01-31T10:07:17.568Z,3.33
2023-01-31T10:10:51.348Z,3.40
2023-01-31T10:13:58.793Z,4.70
2023-01-31T10:17:07.094Z,3.60
2023-01-31T10:20:20.259Z,3.80
2023-01-31T10:24:00.538Z,3.38
2023-01-31T10:27:17.734Z,3.92
2023-01-31T10:30:27.867Z,3.25
2023-01-31T10:33:40.369Z,3.55
2023-01-31T10:37:28.946Z,3.00
2023-01-31T10:40:37.771Z,3.33
2023-01-31T10:43:43.919Z,3.10
2023-01-31T10:46:47.852Z,3.78
2023-01-31T10:49:50.956Z,3.85
2023-01-31T10:53:14.049Z,2.60
2023-01-31T10:56:29.034Z,3.47
2023-01-31T10:59:36.845Z,3.35
2023-01-31T11:02:39.566Z,3.53
2023-01-31T11:05:59.639Z,3.50
2023-01-31T11:09:03.363Z,4.18
2023-01-31T11:12:08.539Z,3.15
2023-01-31T11:15:19.609Z,2.90
2023-01-31T11:18:35.097Z,3.88
2023-01-31T11:21:38.189Z,4.35
2023-01-31T11:24:41.499Z,3.55
2023-01-31T11:27:44.339Z,3.70
2023-01-31T11:30:50.326Z,4.35
2023-01-31T11:34:03.293Z,5.45
2023-01-31T11:37:13.593Z,4.40
2023-01-31T11:40:15.680Z,3.00
2023-01-31T11:43:20.365Z,3.50
2023-01-31T11:46:22.477Z,4.18
2023-01-31T11:49:30.904Z,3.03
2023-01-31T11:52:34.587Z,3.38
2023-01-31T11:55:44.622Z,3.80
2023-01-31T11:58:49.291Z,3.50
2023-01-31T12:01:56.838Z,2.90
2023-01-31T12:05:00.806Z,3.20
2023-01-31T12:08:03.182Z,3.20
2023-01-31T12:11:20.661Z,2.92
2023-01-31T12:14:25.267Z,3.00
2023-01-31T12:17:30.359Z,3.35
2023-01-31T12:20:38.198Z,4.05
2023-01-31T12:23:51.960Z,5.68
2023-01-31T12:26:54.274Z,2.67
2023-01-31T12:30:03.409Z,3.83
2023-01-31T12:33:32.591Z,2.73
2023-01-31T12:37:16.474Z,2.67
2023-01-31T12:40:50.035Z,3.23
2023-01-31T12:43:57.920Z,3.53
2023-01-31T12:47:16.310Z,3.00
2023-01-31T12:51:05.065Z,4.20
2023-01-31T12:54:07.173Z,2.77
2023-01-31T12:57:23.585Z,3.90
2023-01-31T13:00:29.360Z,2.57
2023-01-31T13:03:34.200Z,2.50
2023-01-31T13:09:52.808Z,2.50
2023-01-31T13:12:57.181Z,2.13
2023-01-31T13:16:12.124Z,3.10
2023-01-31T13:19:31.717Z,5.03
2023-01-31T13:22:41.651Z,2.60
2023-01-31T13:26:08.360Z,2.87
2023-01-31T13:29:19.341Z,3.10
2023-01-31T13:32:33.281Z,2.17
2023-01-31T13:35:40.970Z,2.80
2023-01-31T13:38:45.043Z,2.57
2023-01-31T13:41:47.284Z,2.80
2023-01-31T13:44:50.309Z,2.73
2023-01-31T13:48:01.957Z,2.53
2023-01-31T13:51:24.554Z,2.80
2023-01-31T13:54:35.589Z,2.83
2023-01-31T13:57:46.688Z,3.40
2023-01-31T14:01:09.470Z,7.87
2023-01-31T14:04:18.108Z,3.10
2023-01-31T14:07:22.337Z,2.90
2023-01-31T14:10:29.050Z,4.75
2023-01-31T14:13:33.793Z,3.87
2023-01-31T14:16:42.469Z,3.47
2023-01-31T14:19:44.621Z,4.50
2023-01-31T14:23:24.981Z,3.63
2023-01-31T14:26:53.859Z,3.90
2023-01-31T14:30:19.590Z,3.07
2023-01-31T14:36:42.143Z,3.30
2023-01-31T14:40:03.801Z,3.60
2023-01-31T14:43:20.752Z,4.07
2023-01-31T14:46:31.485Z,3.23
2023-01-31T14:50:00.877Z,2.97
2023-01-31T14:53:14.558Z,3.40
2023-01-31T14:56:52.343Z,3.93
2023-01-31T14:59:57.170Z,4.07
2023-01-31T15:06:43.975Z,3.97
2023-01-31T15:09:48.070Z,4.30
2023-01-31T15:12:56.797Z,3.77
2023-01-31T15:15:59.116Z,3.87
2023-01-31T15:19:08.153Z,4.87
2023-01-31T15:22:11.649Z,3.93
2023-01-31T15:25:39.817Z,3.93
2023-01-31T15:28:43.842Z,3.73
2023-01-31T15:31:48.789Z,4.07
2023-01-31T15:35:23.704Z,5.37
2023-01-31T15:38:47.233Z,4.20
2023-01-31T15:41:49.549Z,3.47
2023-01-31T15:45:11.649Z,4.47
2023-01-31T15:48:16.794Z,3.37
2023-01-31T15:51:20.219Z,4.77
2023-01-31T15:54:22.196Z,3.77
2023-01-31T15:57:34.814Z,3.70
2023-01-31T16:00:38.610Z,2.90
2023-01-31T16:03:42.684Z,3.60
2023-01-31T16:06:47.447Z,3.30
2023-01-31T16:09:50.079Z,3.38
2023-01-31T16:12:53.533Z,4.60
2023-01-31T16:15:56.142Z,5.43
2023-01-31T16:18:59.938Z,4.97
2023-01-31T16:22:02.549Z,6.67
2023-01-31T16:25:05.245Z,4.57
2023-01-31T16:28:11.552Z,3.80
2023-01-31T16:31:19.073Z,4.67
2023-01-31T16:34:36.434Z,4.80
2023-01-31T16:37:41.753Z,5.23
2023-01-31T16:40:53.206Z,6.30
2023-01-31T16:43:56.090Z,4.20
2023-01-31T16:46:58.237Z,7.23
2023-01-31T16:50:22.618Z,4.57
2023-01-31T16:53:34.702Z,4.53
2023-01-31T16:56:36.728Z,6.40
2023-01-31T16:59:41.136Z,5.67
2023-01-31T17:02:43.156Z,5.85
2023-01-31T17:05:47.589Z,5.73
2023-01-31T17:08:50.105Z,4.82
2023-01-31T17:11:54.769Z,4.43
2023-01-31T17:15:00.836Z,4.65
2023-01-31T17:18:04.655Z,3.63
2023-01-31T17:21:07.045Z,5.13
2023-01-31T17:24:20.230Z,6.30
2023-01-31T17:27:23.138Z,6.47
2023-01-31T17:30:27.966Z,6.40
2023-01-31T17:33:30.205Z,5.60
2023-01-31T17:36:32.386Z,5.20
2023-01-31T17:39:35.053Z,4.60
2023-01-31T17:42:38.996Z,6.15
2023-01-31T17:45:41.883Z,5.10
2023-01-31T17:48:44.513Z,4.13
2023-01-31T17:51:46.628Z,6.27
2023-01-31T17:54:49.191Z,5.60
2023-01-31T17:57:52.121Z,6.17
2023-01-31T18:00:59.273Z,5.80
2023-01-31T18:04:03.274Z,6.30
2023-01-31T18:07:05.368Z,6.07
2023-01-31T18:10:08.309Z,6.27
2023-01-31T18:13:11.218Z,6.37
2023-01-31T18:16:16.762Z,5.17
2023-01-31T18:19:18.886Z,6.33
2023-01-31T18:22:21.208Z,5.97
2023-01-31T18:25:23.772Z,6.57
2023-01-31T18:28:26.111Z,5.70
2023-01-31T18:31:28.575Z,6.73
2023-01-31T18:34:31.372Z,5.27
2023-01-31T18:37:35.277Z,6.75
2023-01-31T18:40:39.904Z,6.50
2023-01-31T18:43:43.331Z,6.18
2023-01-31T18:46:45.423Z,6.40
2023-01-31T18:49:47.526Z,6.53
2023-01-31T18:52:49.541Z,7.13
2023-01-31T18:56:05.540Z,5.67
2023-01-31T19:02:11.852Z,4.73
2023-01-31T19:05:13.855Z,6.35
2023-01-31T19:08:15.890Z,6.20
2023-01-31T19:11:19.877Z,5.80
2023-01-31T19:17:24.977Z,6.13
2023-01-31T19:20:27.087Z,6.83
2023-01-31T19:23:29.085Z,6.43
2023-01-31T19:26:32.996Z,6.27
2023-01-31T19:29:35.189Z,7.00
2023-01-31T19:32:37.259Z,7.10
2023-01-31T19:35:39.330Z,7.73
2023-01-31T19:38:42.472Z,8.03
2023-01-31T19:41:44.560Z,8.47
2023-01-31T19:44:46.609Z,8.40
2023-01-31T19:47:48.568Z,8.60
2023-01-31T19:50:50.735Z,10.07
2023-01-31T19:54:01.353Z,8.77
2023-01-31T19:57:03.447Z,7.80
2023-01-31T20:00:06.286Z,7.80
2023-01-31T20:03:08.366Z,7.57
2023-01-31T20:06:13.537Z,10.30
2023-01-31T20:09:20.138Z,9.53
2023-01-31T20:12:22.688Z,9.37
2023-01-31T20:15:25.747Z,9.10
2023-01-31T20:18:27.907Z,8.80
2023-01-31T20:21:30.099Z,11.67
2023-01-31T20:24:32.164Z,9.67
2023-01-31T20:27:35.463Z,10.97
2023-01-31T20:30:37.440Z,10.43
2023-01-31T20:33:39.604Z,11.33
2023-01-31T20:36:41.620Z,9.47
2023-01-31T20:39:43.767Z,10.30
2023-01-31T20:42:47.106Z,9.50
2023-01-31T20:45:50.019Z,11.33
2023-01-31T20:48:52.898Z,8.83
2023-01-31T20:51:55.059Z,12.40
2023-01-31T20:54:57.154Z,11.23
2023-01-31T20:57:59.428Z,10.90
2023-01-31T21:01:05.518Z,11.07
2023-01-31T21:04:08.283Z,9.50
2023-01-31T21:07:10.400Z,10.87
2023-01-31T21:10:13.169Z,11.40
2023-01-31T21:13:15.606Z,10.33
2023-01-31T21:16:17.789Z,10.87
2023-01-31T21:19:19.883Z,10.17
2023-01-31T21:22:21.943Z,9.67
2023-01-31T21:25:23.999Z,10.40
2023-01-31T21:28:27.119Z,11.33
2023-01-31T21:31:30.331Z,9.53
2023-01-31T21:34:32.509Z,9.57
2023-01-31T21:37:34.709Z,8.30
2023-01-31T21:40:39.186Z,10.33
2023-01-31T21:43:41.549Z,9.32
2023-01-31T21:46:43.683Z,9.97
2023-01-31T21:49:45.743Z,8.93
2023-01-31T21:52:47.915Z,8.97
2023-01-31T21:55:50.053Z,10.30
2023-01-31T21:58:54.652Z,9.97
2023-01-31T22:01:56.766Z,8.25
2023-01-31T22:04:58.899Z,9.70
2023-01-31T22:08:01.122Z,9.30
2023-01-31T22:11:16.687Z,10.07
2023-01-31T22:14:18.909Z,9.07
2023-01-31T22:17:20.906Z,8.30
2023-01-31T22:20:23.495Z,7.97
2023-01-31T22:23:25.761Z,8.83
2023-01-31T22:26:30.845Z,8.67
2023-01-31T22:29:33.023Z,8.73
2023-01-31T22:32:35.159Z,9.20
2023-01-31T22:35:37.444Z,8.50
2023-01-31T22:38:39.853Z,7.80
2023-01-31T22:41:44.676Z,8.13
2023-01-31T22:44:46.790Z,8.45
2023-01-31T22:47:50.380Z,8.03
2023-01-31T22:50:58.746Z,7.83
2023-01-31T22:54:00.836Z,8.50
2023-01-31T22:57:02.897Z,6.60
2023-01-31T23:00:05.656Z,8.03
2023-01-31T23:03:08.155Z,6.17
2023-01-31T23:06:11.134Z,6.37
2023-01-31T23:09:13.203Z,6.80
2023-01-31T23:12:15.535Z,5.70
2023-01-31T23:15:17.683Z,7.50
2023-01-31T23:18:19.839Z,8.20
2023-01-31T23:21:21.859Z,6.63
2023-01-31T23:24:23.903Z,6.03
2023-01-31T23:27:26.257Z,6.00
2023-01-31T23:30:28.511Z,6.60
2023-01-31T23:33:30.564Z,6.27
2023-01-31T23:36:32.607Z,6.17
2023-01-31T23:39:34.597Z,7.17
2023-01-31T23:42:39.497Z,6.50
2023-01-31T23:45:42.914Z,5.93
2023-01-31T23:48:44.986Z,5.57
2023-01-31T23:51:47.010Z,6.20
2023-01-31T23:54:49.065Z,6.23
2023-01-31T23:57:51.180Z,6.10
